Nueva Hesperides International Airport
SUSO : rendu visible

Aérodrome :











RETROUVEZ-NOUS SUR...

 
LOGIN :

S'inscrire | Disclaimer

   EN    FR    IT 

 









Légende :    VFR   VFR Marginal   IFR   IFR Intensif   IFR Très Intensif
Visi : 
Plafond : 
>= 8 km
>= 3000ft
5 à 8 km
1000 à 3000 ft
1500m à 5 km
500 à 1000 ft
800 à 1500m
200 à 500 ft
< 800m
< 200 ft
Symboles :   Orages  Brouillard  Fortes neiges  Fortes précipitations  Vent > 20 kt






- Altitude de l'aérodrome : 187 ft
- Code IATA : STY


SUSO - Nueva Hesperides International

METARs EXPIRÉS :
  • 012200Z 11006KT 9999 FEW030 SCT083 29/19 Q1008
  • 012100Z 13010KT 9999 SCT030 31/18 Q1008

TAF TAF SUSO
Valide du 01 à 18h jusqu'au 02 à 18h UTC


011730Z 0118/0218 08008KT 9999 FEW030 BKN200 TX31/0218Z TN18/0209Z
FIR SUEO / Amérique du Sud



MET'MAP, la Météo Aéronautique d'un coup d'oeil ! - Copyright ORBIFLY Décembre 2007 - Disclaimer

ORBIFLY MET'MAP TEAM :

Programmation & Développement : Alexandra Zaïnal
Sur une idée originale de : Baudouin d'Aumeries
Assistance à la programmation : Marc-Olivier Méhu
Soutien technique & logistique : Manuel Goepfert

Contact : metmap@orbifly.com




SOURCES & CREDITS :

   NOAA       Earth
Advisory